createdAt,value
2022-08-19T00:03:42.551Z,24.70
2022-08-19T00:07:44.587Z,24.60
2022-08-19T00:11:46.967Z,25.00
2022-08-19T00:15:48.677Z,24.70
2022-08-19T00:19:50.463Z,24.90
2022-08-19T00:23:52.353Z,24.90
2022-08-19T00:27:54.109Z,24.80
2022-08-19T00:31:57.612Z,24.00
2022-08-19T00:36:01.063Z,23.60
2022-08-19T00:40:06.149Z,23.60
2022-08-19T00:44:14.816Z,23.90
2022-08-19T00:48:18.103Z,24.20
2022-08-19T00:52:29.842Z,24.60
2022-08-19T00:56:32.241Z,24.60
2022-08-19T01:00:37.855Z,24.10
2022-08-19T01:04:39.568Z,23.30
2022-08-19T01:08:41.515Z,23.20
2022-08-19T01:12:43.767Z,23.20
2022-08-19T01:16:47.868Z,22.60
2022-08-19T01:20:49.764Z,22.20
2022-08-19T01:24:52.859Z,22.70
2022-08-19T01:29:00.889Z,22.50
2022-08-19T01:33:06.222Z,22.90
2022-08-19T01:37:12.127Z,22.80
2022-08-19T01:41:14.032Z,23.30
2022-08-19T01:45:16.113Z,23.70
2022-08-19T01:49:19.968Z,23.40
2022-08-19T01:53:21.685Z,22.90
2022-08-19T01:57:28.557Z,22.50
2022-08-19T02:01:32.937Z,22.20
2022-08-19T02:05:34.801Z,22.10
2022-08-19T02:09:36.643Z,22.40
2022-08-19T02:13:38.400Z,22.50
2022-08-19T02:17:40.595Z,22.00
2022-08-19T02:21:42.338Z,22.20
2022-08-19T02:25:46.566Z,22.70
2022-08-19T02:29:50.211Z,22.20
2022-08-19T02:33:53.038Z,22.00
2022-08-19T02:38:16.989Z,22.10
2022-08-19T02:42:18.698Z,22.10
2022-08-19T02:46:23.768Z,22.40
2022-08-19T02:50:25.516Z,22.80
2022-08-19T02:54:28.220Z,22.70
2022-08-19T02:58:30.361Z,22.70
2022-08-19T03:02:32.065Z,22.80
2022-08-19T03:06:37.861Z,22.50
2022-08-19T03:10:47.931Z,22.60
2022-08-19T03:14:49.695Z,22.10
2022-08-19T03:18:52.355Z,21.20
2022-08-19T03:22:54.232Z,21.10
2022-08-19T03:26:58.467Z,20.90
2022-08-19T03:31:04.028Z,21.00
2022-08-19T03:35:06.932Z,21.50
2022-08-19T03:39:09.490Z,22.60
2022-08-19T03:43:11.191Z,22.70
2022-08-19T03:47:17.266Z,22.50
2022-08-19T03:51:31.169Z,22.50
2022-08-19T03:55:33.194Z,22.30
2022-08-19T03:59:36.870Z,22.10
2022-08-19T04:03:41.079Z,21.40
2022-08-19T04:07:42.825Z,21.40
2022-08-19T04:11:51.233Z,21.50
2022-08-19T04:15:54.067Z,22.20
2022-08-19T04:19:55.794Z,22.50
2022-08-19T04:23:58.515Z,22.70
2022-08-19T04:28:00.787Z,22.40
2022-08-19T04:32:08.946Z,22.30
2022-08-19T04:36:23.342Z,21.70
2022-08-19T04:40:43.456Z,22.00
2022-08-19T04:44:46.403Z,22.20
2022-08-19T04:48:49.386Z,22.50
2022-08-19T04:52:52.591Z,22.50
2022-08-19T04:56:55.288Z,22.70
2022-08-19T05:00:57.075Z,22.40
2022-08-19T05:05:01.409Z,22.40
2022-08-19T05:09:06.614Z,21.80
2022-08-19T05:13:10.769Z,21.80
2022-08-19T05:17:27.180Z,23.00
2022-08-19T05:21:49.613Z,23.60
2022-08-19T05:25:53.102Z,23.90
2022-08-19T05:29:54.818Z,24.10
2022-08-19T05:33:59.197Z,24.00
2022-08-19T05:38:00.898Z,24.00
2022-08-19T05:42:09.311Z,24.10
2022-08-19T05:46:28.182Z,24.30
2022-08-19T05:50:30.850Z,24.00
2022-08-19T05:54:33.344Z,23.20
2022-08-19T05:58:36.372Z,23.60
2022-08-19T06:02:38.260Z,24.00
2022-08-19T06:06:40.482Z,24.00
2022-08-19T06:10:42.220Z,24.20
2022-08-19T06:14:43.971Z,23.80
2022-08-19T06:18:46.146Z,23.90
2022-08-19T06:22:53.162Z,24.20
2022-08-19T06:27:00.840Z,24.20
2022-08-19T06:31:08.166Z,23.60
2022-08-19T06:35:09.924Z,22.90
2022-08-19T06:39:18.251Z,23.00
2022-08-19T06:43:19.935Z,22.50
2022-08-19T06:47:28.451Z,22.00
2022-08-19T06:55:34.176Z,21.70
2022-08-19T06:59:38.174Z,21.50
2022-08-19T07:03:40.641Z,21.50
2022-08-19T07:07:44.033Z,21.70
2022-08-19T07:11:52.051Z,21.80
2022-08-19T07:15:53.928Z,21.50
2022-08-19T07:19:56.208Z,21.80
2022-08-19T07:24:02.924Z,21.80
2022-08-19T07:28:18.032Z,22.10
2022-08-19T07:32:27.707Z,21.60
2022-08-19T07:36:33.204Z,21.80
2022-08-19T07:40:34.948Z,22.60
2022-08-19T07:44:37.776Z,22.60
2022-08-19T07:48:40.382Z,22.10
2022-08-19T07:52:45.107Z,21.80
2022-08-19T07:56:52.482Z,22.40
2022-08-19T08:00:54.936Z,22.10
2022-08-19T08:05:15.121Z,23.00
2022-08-19T08:09:23.445Z,23.50
2022-08-19T08:13:26.615Z,23.60
2022-08-19T08:17:48.694Z,23.40
2022-08-19T08:21:52.887Z,23.00
2022-08-19T08:25:58.386Z,23.20
2022-08-19T08:30:00.149Z,22.80
2022-08-19T08:34:05.110Z,21.80
2022-08-19T08:38:06.815Z,22.50
2022-08-19T08:42:21.114Z,23.00
2022-08-19T08:46:46.355Z,22.50
2022-08-19T08:50:51.478Z,23.00
2022-08-19T08:54:57.460Z,23.30
2022-08-19T08:59:09.407Z,23.60
2022-08-19T09:03:24.064Z,22.90
2022-08-19T09:08:03.613Z,22.80
2022-08-19T09:12:39.269Z,23.00
2022-08-19T09:16:44.818Z,22.90
2022-08-19T09:20:48.561Z,22.40
2022-08-19T09:24:53.126Z,22.20
2022-08-19T09:28:55.749Z,23.30
2022-08-19T09:33:00.904Z,23.40
2022-08-19T09:37:03.948Z,23.00
2022-08-19T09:41:07.768Z,21.90
2022-08-19T09:49:25.993Z,22.10
2022-08-19T09:53:27.972Z,22.20
2022-08-19T09:57:30.335Z,21.60
2022-08-19T10:01:33.409Z,21.30
2022-08-19T10:05:50.147Z,20.50
2022-08-19T10:09:51.878Z,21.30
2022-08-19T10:13:54.115Z,21.70
2022-08-19T10:17:56.116Z,21.80
2022-08-19T10:22:00.488Z,21.00
2022-08-19T10:26:02.537Z,21.40
2022-08-19T10:30:04.942Z,21.70
2022-08-19T10:34:17.567Z,21.80
2022-08-19T10:38:31.599Z,22.20
2022-08-19T10:42:35.718Z,22.00
2022-08-19T10:46:46.071Z,21.60
2022-08-19T10:51:08.681Z,22.10
2022-08-19T10:55:29.799Z,22.20
2022-08-19T10:59:35.940Z,22.70
2022-08-19T11:03:38.462Z,22.90
2022-08-19T11:07:40.590Z,22.80
2022-08-19T11:11:43.252Z,22.60
2022-08-19T11:15:46.814Z,23.40
2022-08-19T11:19:49.290Z,22.70
2022-08-19T11:23:53.465Z,22.50
2022-08-19T11:27:55.390Z,22.40
2022-08-19T11:31:57.297Z,22.40
2022-08-19T11:36:00.844Z,22.90
2022-08-19T11:40:02.689Z,22.90
2022-08-19T11:44:05.544Z,23.40
2022-08-19T11:48:07.344Z,23.20
2022-08-19T11:52:10.010Z,22.60
2022-08-19T11:56:12.427Z,22.00
2022-08-19T12:00:14.901Z,22.10
2022-08-19T12:04:16.717Z,22.50
2022-08-19T12:08:21.428Z,21.70
2022-08-19T12:12:24.415Z,21.00
2022-08-19T12:16:28.957Z,21.80
2022-08-19T12:20:30.778Z,21.60
2022-08-19T12:24:33.649Z,22.10
2022-08-19T12:28:35.391Z,22.10
2022-08-19T12:32:37.661Z,22.10
2022-08-19T12:36:39.461Z,22.00
2022-08-19T12:40:41.425Z,22.60
2022-08-19T12:44:44.640Z,22.60
2022-08-19T12:48:46.626Z,22.40
2022-08-19T12:52:48.913Z,22.80
2022-08-19T12:56:50.655Z,22.30
2022-08-19T13:00:52.889Z,21.80
2022-08-19T13:04:54.785Z,21.70
2022-08-19T13:08:59.673Z,21.90
2022-08-19T13:13:05.893Z,22.20
2022-08-19T13:17:08.187Z,21.20
2022-08-19T13:21:14.085Z,21.70
2022-08-19T13:25:18.461Z,21.10
2022-08-19T13:29:39.010Z,21.10
2022-08-19T13:33:46.203Z,21.10
2022-08-19T13:37:48.148Z,20.50
2022-08-19T13:41:50.785Z,20.00
2022-08-19T13:45:56.663Z,21.00
2022-08-19T13:49:58.398Z,21.10
2022-08-19T13:54:00.133Z,21.20
2022-08-19T13:58:04.960Z,20.80
2022-08-19T14:02:06.765Z,19.90
2022-08-19T14:06:08.925Z,20.10
2022-08-19T14:10:14.620Z,19.60
2022-08-19T14:14:16.621Z,19.50
2022-08-19T14:18:19.772Z,19.90
2022-08-19T14:22:22.521Z,20.30
2022-08-19T14:26:24.861Z,20.90
2022-08-19T14:30:29.941Z,20.50
2022-08-19T14:34:32.495Z,20.50
2022-08-19T14:38:34.262Z,21.30
2022-08-19T14:42:36.030Z,21.60
2022-08-19T14:46:37.765Z,21.00
2022-08-19T14:50:39.548Z,20.70
2022-08-19T14:54:41.266Z,19.80
2022-08-19T14:58:44.140Z,19.80
2022-08-19T15:02:45.917Z,20.10
2022-08-19T15:06:47.642Z,20.10
2022-08-19T15:10:49.730Z,19.70
2022-08-19T15:14:56.023Z,20.40
2022-08-19T15:19:00.927Z,20.80
2022-08-19T15:23:02.732Z,21.50
2022-08-19T15:27:06.009Z,21.50
2022-08-19T15:31:08.201Z,21.70
2022-08-19T15:35:21.533Z,22.20
2022-08-19T15:39:23.273Z,22.50
2022-08-19T15:43:24.982Z,22.80
2022-08-19T15:47:34.748Z,22.90
2022-08-19T15:51:39.293Z,22.90
2022-08-19T15:55:45.808Z,23.00
2022-08-19T16:00:06.670Z,22.90
2022-08-19T16:04:27.534Z,23.00
2022-08-19T16:08:29.258Z,23.00
2022-08-19T16:12:31.466Z,23.00
2022-08-19T16:16:34.915Z,23.10
2022-08-19T16:20:36.624Z,23.20
2022-08-19T16:24:38.397Z,23.30
2022-08-19T16:28:41.238Z,23.40
2022-08-19T16:32:43.950Z,23.50
2022-08-19T16:36:45.757Z,23.30
2022-08-19T16:40:49.122Z,23.30
2022-08-19T16:44:51.501Z,23.40
2022-08-19T16:48:53.205Z,23.40
2022-08-19T16:52:57.565Z,23.00
2022-08-19T16:56:59.452Z,23.40
2022-08-19T17:01:06.837Z,23.20
2022-08-19T17:05:10.135Z,23.20
2022-08-19T17:09:12.046Z,23.20
2022-08-19T17:13:15.169Z,23.30
2022-08-19T17:17:16.957Z,23.30
2022-08-19T17:21:20.169Z,23.10
2022-08-19T17:25:22.076Z,23.50
2022-08-19T17:29:24.020Z,23.60
2022-08-19T17:33:25.877Z,23.60
2022-08-19T17:37:28.178Z,23.60
2022-08-19T17:41:30.530Z,23.70
2022-08-19T17:45:32.387Z,23.50
2022-08-19T17:49:36.341Z,23.50
2022-08-19T17:53:38.030Z,23.50
2022-08-19T17:57:46.095Z,23.60
2022-08-19T18:01:53.429Z,23.80
2022-08-19T18:05:56.331Z,23.90
2022-08-19T18:09:58.602Z,23.80
2022-08-19T18:14:03.702Z,23.30
2022-08-19T18:18:14.943Z,23.60
2022-08-19T18:22:35.392Z,23.70
2022-08-19T18:26:37.169Z,23.90
2022-08-19T18:30:39.103Z,24.00
2022-08-19T18:34:43.430Z,24.00
2022-08-19T18:39:07.973Z,23.70
2022-08-19T18:43:19.569Z,23.50
2022-08-19T18:47:39.853Z,23.50
2022-08-19T18:51:41.634Z,23.60
2022-08-19T18:55:43.428Z,23.70
2022-08-19T18:59:47.912Z,23.50
2022-08-19T19:03:53.390Z,23.60
2022-08-19T19:07:55.195Z,23.30
2022-08-19T19:12:00.251Z,23.20
2022-08-19T19:16:02.310Z,23.30
2022-08-19T19:20:05.831Z,23.30
2022-08-19T19:24:08.926Z,23.10
2022-08-19T19:28:14.620Z,23.40
2022-08-19T19:32:23.354Z,23.50
2022-08-19T19:36:25.462Z,23.70
2022-08-19T19:40:27.922Z,23.80
2022-08-19T19:44:30.892Z,23.80
2022-08-19T19:48:35.439Z,23.80
2022-08-19T19:52:38.221Z,23.80
2022-08-19T19:56:43.470Z,23.80
2022-08-19T20:00:45.764Z,23.80
2022-08-19T20:04:48.090Z,23.80
2022-08-19T20:09:08.175Z,23.60
2022-08-19T20:13:11.288Z,23.50
2022-08-19T20:17:13.050Z,23.40
2022-08-19T20:21:14.794Z,23.40
2022-08-19T20:25:19.198Z,23.60
2022-08-19T20:29:39.225Z,23.60
2022-08-19T20:33:42.554Z,23.40
2022-08-19T20:37:44.678Z,23.70
2022-08-19T20:41:46.540Z,23.80
2022-08-19T20:45:48.566Z,23.80
2022-08-19T20:49:51.465Z,23.70
2022-08-19T20:53:53.467Z,23.80
2022-08-19T20:57:55.325Z,23.90
2022-08-19T21:01:57.455Z,24.00
2022-08-19T21:05:59.226Z,24.00
2022-08-19T21:10:01.103Z,24.00
2022-08-19T21:14:03.588Z,24.00
2022-08-19T21:18:05.421Z,24.10
2022-08-19T21:22:07.138Z,23.90
2022-08-19T21:26:09.162Z,24.00
2022-08-19T21:30:11.789Z,24.10
2022-08-19T21:34:13.920Z,24.10
2022-08-19T21:38:15.797Z,24.10
2022-08-19T21:42:17.547Z,24.10
2022-08-19T21:46:19.294Z,24.10
2022-08-19T21:50:23.906Z,24.00
2022-08-19T21:54:37.556Z,24.00
2022-08-19T21:58:41.251Z,24.00
2022-08-19T22:02:43.075Z,24.10
2022-08-19T22:06:44.839Z,24.10
2022-08-19T22:10:49.626Z,24.00
2022-08-19T22:14:52.549Z,23.80
2022-08-19T22:18:54.345Z,23.80
2022-08-19T22:23:02.481Z,23.70
2022-08-19T22:27:06.690Z,23.60
2022-08-19T22:31:10.966Z,23.80
2022-08-19T22:35:13.135Z,23.60
2022-08-19T22:39:14.868Z,23.40
2022-08-19T22:43:19.817Z,23.50
2022-08-19T22:47:21.500Z,23.50
2022-08-19T22:51:46.206Z,23.60
2022-08-19T22:55:47.927Z,23.40
2022-08-19T22:59:51.473Z,23.50
2022-08-19T23:03:53.518Z,23.60
2022-08-19T23:07:57.973Z,23.70
2022-08-19T23:12:00.553Z,23.60
2022-08-19T23:16:03.122Z,23.70
2022-08-19T23:20:06.342Z,23.70
2022-08-19T23:24:08.987Z,23.70
2022-08-19T23:28:29.269Z,23.70
2022-08-19T23:32:35.281Z,23.70
2022-08-19T23:36:36.997Z,23.60
2022-08-19T23:40:40.238Z,23.60
2022-08-19T23:44:51.961Z,23.50
2022-08-19T23:48:55.549Z,23.60
2022-08-19T23:52:59.665Z,23.50
2022-08-19T23:57:01.439Z,23.30
